Wan Hai 510 — 9VJJ8 — position and weather

sailwx.info

Track history (hours):
 
Tides and Currents Weather Stations Pressure Air Temp Water Temp Dewpoint Dewpoint Depression Visibility Wind Speed Wind Dir Waves Ship Positions

Wan Hai 510

Last reported at 2016-Feb-02 08:33 UTC. Time now 2016-Feb-10 10:42 UTC.
Position N 22°19' E 114°05'.
Warning: this ship's position is 8 days out of date.

Length 269 m; draft 8.4 m.

Type: Cargo ship. MMSI: 565741000.

Date/timePositionNaut miles runAvg speedWind from/ knotsBaromVisibWave heightAir tempDewpointWater temp
2016-Feb-02 08:33N 22°19' E 114°05'317 9.6
2016-Jan-31 23:23N 22°31' E 119°48'1315.8
2016-Jan-31 22:34N 22°32' E 120°02'1312.6
2016-Jan-31 21:33N 22°33' E 120°16'3 2.9
2016-Jan-31 20:32N 22°35' E 120°18'0 0.0
2016-Jan-31 19:32N 22°35' E 120°18'0 0.0
2016-Jan-31 18:32N 22°35' E 120°18'0 0.0
2016-Jan-31 17:32N 22°35' E 120°18'0 0.0
2016-Jan-31 16:32N 22°35' E 120°18'0 0.1
2016-Jan-31 15:32N 22°35' E 120°18'0 0.0
2016-Jan-31 14:32N 22°35' E 120°18'0 0.1
2016-Jan-31 13:32N 22°35' E 120°18'0 0.1
2016-Jan-31 12:32N 22°35' E 120°18'0 0.0
2016-Jan-31 11:32N 22°35' E 120°18'0 0.0
2016-Jan-31 10:32N 22°35' E 120°18'0 0.1
2016-Jan-31 09:26N 22°35' E 120°18'0 0.1
2016-Jan-31 08:32N 22°35' E 120°18'7 0.9
2016-Jan-31 00:33N 22°29' E 120°13'1717.2
2016-Jan-30 23:33N 22°15' E 120°02'  
2016-Jan-27 06:10N 01°15' E 104°03'1016.6
2016-Jan-27 05:34N 01°13' E 103°53'4 3.5
2016-Jan-27 04:32N 01°16' E 103°50'0 0.0
2016-Jan-27 03:32N 01°16' E 103°50'0 0.0
2016-Jan-27 02:32N 01°16' E 103°50'0 0.0
2016-Jan-27 01:26N 01°16' E 103°50'0 0.0
2016-Jan-27 00:32N 01°16' E 103°50'0 0.0
2016-Jan-26 23:32N 01°16' E 103°50'0 0.0
2016-Jan-26 22:32N 01°16' E 103°50'0 0.0
2016-Jan-26 21:32N 01°16' E 103°50'0 0.0
2016-Jan-26 20:32N 01°16' E 103°50'0 0.0
2016-Jan-26 19:32N 01°16' E 103°50'0 0.0
2016-Jan-26 18:32N 01°16' E 103°50'0 0.0
2016-Jan-26 17:32N 01°16' E 103°50'0 0.0
2016-Jan-26 16:32N 01°16' E 103°50'0 0.0
2016-Jan-26 15:32N 01°16' E 103°50'1 1.5
2016-Jan-26 14:34N 01°15' E 103°52'4 3.7
2016-Jan-26 13:33N 01°11' E 103°51'  
Track history (hours):
 
Tides and Currents Weather Stations Pressure Air Temp Water Temp Dewpoint Dewpoint Depression Visibility Wind Speed Wind Dir Waves Ship Positions

Wan Hai 510

Last reported at 2016-Feb-02 08:33 UTC. Time now 2016-Feb-10 10:42 UTC.
Position N 22°19' E 114°05'.
Warning: this ship's position is 8 days out of date.

Length 269 m; draft 8.4 m.

Type: Cargo ship. MMSI: 565741000.

Date/timePositionNaut miles runAvg speedWind from/ knotsBaromVisibWave heightAir tempDewpointWater temp
2016-Feb-02 08:33N 22°19' E 114°05'317 9.6
2016-Jan-31 23:23N 22°31' E 119°48'1315.8
2016-Jan-31 22:34N 22°32' E 120°02'1312.6
2016-Jan-31 21:33N 22°33' E 120°16'3 2.9
2016-Jan-31 20:32N 22°35' E 120°18'0 0.0
2016-Jan-31 19:32N 22°35' E 120°18'0 0.0
2016-Jan-31 18:32N 22°35' E 120°18'0 0.0
2016-Jan-31 17:32N 22°35' E 120°18'0 0.0
2016-Jan-31 16:32N 22°35' E 120°18'0 0.1
2016-Jan-31 15:32N 22°35' E 120°18'0 0.0
2016-Jan-31 14:32N 22°35' E 120°18'0 0.1
2016-Jan-31 13:32N 22°35' E 120°18'0 0.1
2016-Jan-31 12:32N 22°35' E 120°18'0 0.0
2016-Jan-31 11:32N 22°35' E 120°18'0 0.0
2016-Jan-31 10:32N 22°35' E 120°18'0 0.1
2016-Jan-31 09:26N 22°35' E 120°18'0 0.1
2016-Jan-31 08:32N 22°35' E 120°18'7 0.9
2016-Jan-31 00:33N 22°29' E 120°13'1717.2
2016-Jan-30 23:33N 22°15' E 120°02'  
2016-Jan-27 06:10N 01°15' E 104°03'1016.6
2016-Jan-27 05:34N 01°13' E 103°53'4 3.5
2016-Jan-27 04:32N 01°16' E 103°50'0 0.0
2016-Jan-27 03:32N 01°16' E 103°50'0 0.0
2016-Jan-27 02:32N 01°16' E 103°50'0 0.0
2016-Jan-27 01:26N 01°16' E 103°50'0 0.0
2016-Jan-27 00:32N 01°16' E 103°50'0 0.0
2016-Jan-26 23:32N 01°16' E 103°50'0 0.0
2016-Jan-26 22:32N 01°16' E 103°50'0 0.0
2016-Jan-26 21:32N 01°16' E 103°50'0 0.0
2016-Jan-26 20:32N 01°16' E 103°50'0 0.0
2016-Jan-26 19:32N 01°16' E 103°50'0 0.0
2016-Jan-26 18:32N 01°16' E 103°50'0 0.0
2016-Jan-26 17:32N 01°16' E 103°50'0 0.0
2016-Jan-26 16:32N 01°16' E 103°50'0 0.0
2016-Jan-26 15:32N 01°16' E 103°50'1 1.5
2016-Jan-26 14:34N 01°15' E 103°52'4 3.7
2016-Jan-26 13:33N 01°11' E 103°51'  

Dump ship's entire track history